createdAt,value
2022-08-31T00:02:06.189Z,100756.41
2022-08-31T00:04:35.385Z,100758.09
2022-08-31T00:07:03.811Z,100754.44
2022-08-31T00:09:32.964Z,100761.53
2022-08-31T00:12:01.679Z,100767.72
2022-08-31T00:14:30.073Z,100766.88
2022-08-31T00:16:59.976Z,100773.94
2022-08-31T00:19:28.838Z,100758.09
2022-08-31T00:21:57.125Z,100768.06
2022-08-31T00:24:25.995Z,100766.81
2022-08-31T00:26:54.311Z,100770.78
2022-08-31T00:29:22.830Z,100764.06
2022-08-31T00:31:51.433Z,100762.59
2022-08-31T00:34:22.421Z,100765.50
2022-08-31T00:36:50.762Z,100758.63
2022-08-31T00:39:19.056Z,100764.22
2022-08-31T00:41:47.952Z,100762.53
2022-08-31T00:44:16.316Z,100767.03
2022-08-31T00:46:45.988Z,100768.94
2022-08-31T00:49:18.930Z,100775.59
2022-08-31T00:51:53.373Z,100782.25
2022-08-31T00:54:33.660Z,100792.31
2022-08-31T00:57:02.473Z,100802.72
2022-08-31T00:59:30.947Z,100800.81
2022-08-31T01:01:59.878Z,100786.19
2022-08-31T01:04:28.584Z,100789.91
2022-08-31T01:06:58.920Z,100792.59
2022-08-31T01:09:31.564Z,100788.09
2022-08-31T01:12:00.083Z,100783.81
2022-08-31T01:14:28.732Z,100784.03
2022-08-31T01:16:57.509Z,100785.94
2022-08-31T01:19:33.829Z,100787.00
2022-08-31T01:22:14.923Z,100792.47
2022-08-31T01:24:48.368Z,100797.91
2022-08-31T01:27:22.838Z,100789.88
2022-08-31T01:29:51.143Z,100785.50
2022-08-31T01:32:19.801Z,100790.00
2022-08-31T01:34:48.112Z,100791.06
2022-08-31T01:37:16.946Z,100798.34
2022-08-31T01:39:46.941Z,100795.78
2022-08-31T01:42:15.544Z,100791.41
2022-08-31T01:44:44.149Z,100794.09
2022-08-31T01:47:14.031Z,100789.69
2022-08-31T01:49:42.458Z,100777.19
2022-08-31T01:52:10.811Z,100779.00
2022-08-31T01:54:41.082Z,100780.81
2022-08-31T01:57:11.915Z,100777.38
2022-08-31T01:59:55.235Z,100771.41
2022-08-31T02:02:43.107Z,100769.81
2022-08-31T02:05:14.386Z,100776.97
2022-08-31T02:07:43.033Z,100773.53
2022-08-31T02:10:11.659Z,100775.50
2022-08-31T02:12:42.783Z,100776.34
2022-08-31T02:15:12.727Z,100773.75
2022-08-31T02:17:42.580Z,100779.31
2022-08-31T02:20:15.421Z,100777.75
2022-08-31T02:22:44.603Z,100786.81
2022-08-31T02:25:13.559Z,100787.88
2022-08-31T02:27:44.036Z,100790.66
2022-08-31T02:30:20.014Z,100790.13
2022-08-31T02:32:48.567Z,100793.72
2022-08-31T02:35:17.607Z,100794.91
2022-08-31T02:37:46.039Z,100798.09
2022-08-31T02:40:16.311Z,100799.38
2022-08-31T02:42:52.348Z,100800.47
2022-08-31T02:45:23.687Z,100800.53
2022-08-31T02:47:52.520Z,100798.84
2022-08-31T02:50:27.850Z,100800.75
2022-08-31T02:52:56.893Z,100803.41
2022-08-31T02:55:26.387Z,100805.25
2022-08-31T02:57:56.490Z,100803.41
2022-08-31T03:00:25.767Z,100808.75
2022-08-31T03:02:54.898Z,100811.44
2022-08-31T03:05:25.167Z,100813.25
2022-08-31T03:07:53.860Z,100805.31
2022-08-31T03:10:25.277Z,100809.94
2022-08-31T03:12:55.976Z,100812.81
2022-08-31T03:15:27.382Z,100810.19
2022-08-31T03:17:58.778Z,100808.59
2022-08-31T03:20:34.478Z,100809.00
2022-08-31T03:23:03.648Z,100813.59
2022-08-31T03:25:33.392Z,100817.22
2022-08-31T03:28:03.137Z,100808.28
2022-08-31T03:30:34.711Z,100808.28
2022-08-31T03:33:08.069Z,100799.38
2022-08-31T03:35:44.743Z,100805.03
2022-08-31T03:38:14.092Z,100805.81
2022-08-31T03:40:44.316Z,100803.03
2022-08-31T03:43:14.944Z,100803.78
2022-08-31T03:45:45.028Z,100803.66
2022-08-31T03:48:13.665Z,100805.41
2022-08-31T03:50:45.019Z,100803.56
2022-08-31T03:53:23.566Z,100809.75
2022-08-31T03:56:01.009Z,100812.44
2022-08-31T03:58:33.652Z,100817.84
2022-08-31T04:01:02.927Z,100817.97
2022-08-31T04:04:03.674Z,100818.47
2022-08-31T04:07:00.673Z,100828.50
2022-08-31T04:10:01.411Z,100837.56
2022-08-31T04:13:05.103Z,100839.38
2022-08-31T04:15:51.288Z,100830.41
2022-08-31T04:18:49.206Z,100836.63
2022-08-31T04:21:21.255Z,100834.78
2022-08-31T04:23:50.859Z,100842.81
2022-08-31T04:26:23.233Z,100837.47
2022-08-31T04:28:52.420Z,100835.72
2022-08-31T04:31:23.865Z,100841.06
2022-08-31T04:33:53.079Z,100839.38
2022-08-31T04:36:24.534Z,100847.47
2022-08-31T04:38:58.913Z,100850.25
2022-08-31T04:41:30.876Z,100851.41
2022-08-31T04:44:01.307Z,100850.63
2022-08-31T04:46:34.919Z,100849.78
2022-08-31T04:49:04.346Z,100855.13
2022-08-31T04:51:35.551Z,100859.59
2022-08-31T04:54:07.208Z,100859.59
2022-08-31T04:56:39.639Z,100853.50
2022-08-31T04:59:11.400Z,100860.66
2022-08-31T05:01:51.279Z,100850.19
2022-08-31T05:04:24.720Z,100855.72
2022-08-31T05:06:53.812Z,100852.28
2022-08-31T05:09:24.090Z,100856.78
2022-08-31T05:11:56.278Z,100859.53
2022-08-31T05:14:26.448Z,100856.97
2022-08-31T05:17:06.306Z,100864.19
2022-08-31T05:19:44.218Z,100869.53
2022-08-31T05:22:15.420Z,100880.31
2022-08-31T05:24:45.609Z,100875.06
2022-08-31T05:27:14.400Z,100884.03
2022-08-31T05:29:43.096Z,100877.84
2022-08-31T05:32:31.151Z,100875.25
2022-08-31T05:35:01.289Z,100879.75
2022-08-31T05:37:30.281Z,100887.84
2022-08-31T05:39:59.141Z,100892.31
2022-08-31T05:42:27.570Z,100891.44
2022-08-31T05:44:56.452Z,100888.78
2022-08-31T05:47:25.258Z,100889.75
2022-08-31T05:49:55.051Z,100888.91
2022-08-31T05:52:25.367Z,100894.31
2022-08-31T05:54:55.648Z,100892.50
2022-08-31T05:57:26.708Z,100901.34
2022-08-31T05:59:58.642Z,100900.50
2022-08-31T06:02:29.485Z,100902.31
2022-08-31T06:05:00.480Z,100901.34
2022-08-31T06:07:29.562Z,100902.13
2022-08-31T06:10:01.972Z,100899.44
2022-08-31T06:12:34.242Z,100908.31
2022-08-31T06:15:05.211Z,100910.88
2022-08-31T06:17:35.046Z,100909.00
2022-08-31T06:20:08.134Z,100909.84
2022-08-31T06:22:37.715Z,100915.84
2022-08-31T06:25:11.741Z,100918.31
2022-08-31T06:27:40.101Z,100918.97
2022-08-31T06:30:10.445Z,100924.94
2022-08-31T06:32:39.072Z,100929.34
2022-08-31T06:35:11.555Z,100933.63
2022-08-31T06:38:11.993Z,100935.34
2022-08-31T06:40:50.784Z,100936.09
2022-08-31T06:43:37.928Z,100940.38
2022-08-31T06:46:21.389Z,100939.44
2022-08-31T06:49:14.263Z,100948.38
2022-08-31T06:51:45.219Z,100951.81
2022-08-31T06:54:28.904Z,100941.13
2022-08-31T06:57:16.517Z,100955.44
2022-08-31T07:00:22.935Z,100951.22
2022-08-31T07:03:22.992Z,100957.53
2022-08-31T07:05:53.964Z,100958.69
2022-08-31T07:08:23.916Z,100955.06
2022-08-31T07:10:53.136Z,100967.63
2022-08-31T07:13:21.598Z,100965.84
2022-08-31T07:15:50.297Z,100963.25
2022-08-31T07:18:18.778Z,100979.44
2022-08-31T07:20:47.310Z,100979.06
2022-08-31T07:23:15.744Z,100982.28
2022-08-31T07:25:55.812Z,100985.72
2022-08-31T07:28:24.986Z,100986.25
2022-08-31T07:30:56.287Z,100982.25
2022-08-31T07:33:24.695Z,100996.28
2022-08-31T07:35:58.212Z,101010.50
2022-08-31T07:38:52.399Z,101005.06
2022-08-31T07:41:38.311Z,101011.97
2022-08-31T07:44:07.451Z,101020.56
2022-08-31T07:46:36.205Z,101028.22
2022-08-31T07:49:08.921Z,101033.09
2022-08-31T07:51:53.262Z,101037.19
2022-08-31T07:54:46.591Z,101035.84
2022-08-31T07:57:25.893Z,101038.06
2022-08-31T08:00:08.407Z,101048.69
2022-08-31T08:02:54.984Z,101036.72
2022-08-31T08:05:31.784Z,101041.34
2022-08-31T08:08:35.483Z,101044.16
2022-08-31T08:11:17.979Z,101053.84
2022-08-31T08:14:08.651Z,101053.66
2022-08-31T08:17:03.293Z,101049.41
2022-08-31T08:19:41.743Z,101051.72
2022-08-31T08:22:10.192Z,101058.38
2022-08-31T08:25:04.922Z,101065.72
2022-08-31T08:27:45.706Z,101065.31
2022-08-31T08:30:29.783Z,101061.28
2022-08-31T08:33:03.219Z,101064.22
2022-08-31T08:35:32.677Z,101066.38
2022-08-31T08:38:07.575Z,101062.00
2022-08-31T08:40:41.926Z,101072.75
2022-08-31T08:43:15.895Z,101065.66
2022-08-31T08:45:51.564Z,101073.69
2022-08-31T08:48:28.045Z,101075.34
2022-08-31T08:50:56.487Z,101076.22
2022-08-31T08:53:34.383Z,101077.91
2022-08-31T08:56:33.332Z,101079.63
2022-08-31T08:59:02.470Z,101074.19
2022-08-31T09:01:37.509Z,101072.19
2022-08-31T09:04:22.073Z,101082.66
2022-08-31T09:07:01.020Z,101083.50
2022-08-31T09:09:43.208Z,101073.78
2022-08-31T09:12:31.031Z,101082.59
2022-08-31T09:15:36.210Z,101078.94
2022-08-31T09:18:26.348Z,101085.72
2022-08-31T09:21:11.697Z,101081.16
2022-08-31T09:23:44.206Z,101083.53
2022-08-31T09:26:18.788Z,101085.22
2022-08-31T09:29:08.555Z,101086.84
2022-08-31T09:31:40.318Z,101085.63
2022-08-31T09:34:25.656Z,101081.06
2022-08-31T09:36:57.636Z,101087.19
2022-08-31T09:39:36.926Z,101085.88
2022-08-31T09:42:28.956Z,101087.22
2022-08-31T09:45:00.127Z,101085.13
2022-08-31T09:47:55.945Z,101086.47
2022-08-31T09:50:37.455Z,101087.03
2022-08-31T09:53:37.160Z,101085.72
2022-08-31T09:56:14.267Z,101088.84
2022-08-31T09:58:50.253Z,101083.16
2022-08-31T10:01:30.203Z,101081.03
2022-08-31T10:04:20.354Z,101080.56
2022-08-31T10:07:01.789Z,101073.00
2022-08-31T10:09:37.143Z,101070.13
2022-08-31T10:12:10.857Z,101067.13
2022-08-31T10:14:50.704Z,101068.34
2022-08-31T10:17:26.422Z,101068.72
2022-08-31T10:20:08.769Z,101074.41
2022-08-31T10:22:42.148Z,101070.47
2022-08-31T10:25:24.246Z,101069.53
2022-08-31T10:28:00.836Z,101073.59
2022-08-31T10:30:38.322Z,101068.63
2022-08-31T10:33:15.470Z,101067.44
2022-08-31T10:35:54.719Z,101068.78
2022-08-31T10:38:38.432Z,101065.03
2022-08-31T10:41:13.126Z,101073.63
2022-08-31T10:43:49.541Z,101072.59
2022-08-31T10:46:18.612Z,101078.59
2022-08-31T10:48:53.151Z,101073.28
2022-08-31T10:51:29.658Z,101075.09
2022-08-31T10:54:28.202Z,101073.38
2022-08-31T10:57:09.371Z,101076.72
2022-08-31T10:59:56.158Z,101079.50
2022-08-31T11:02:46.345Z,101076.91
2022-08-31T11:05:38.376Z,101080.34
2022-08-31T11:08:31.214Z,101082.22
2022-08-31T11:11:02.537Z,101078.78
2022-08-31T11:14:05.368Z,101080.53
2022-08-31T11:16:52.280Z,101077.84
2022-08-31T11:19:41.653Z,101080.19
2022-08-31T11:22:36.986Z,101087.03
2022-08-31T11:25:58.305Z,101078.69
2022-08-31T11:28:34.283Z,101077.06
2022-08-31T11:31:08.114Z,101066.56
2022-08-31T11:33:37.788Z,101072.03
2022-08-31T11:36:10.074Z,101076.44
2022-08-31T11:38:54.606Z,101065.09
2022-08-31T11:41:41.195Z,101074.66
2022-08-31T11:44:33.169Z,101063.28
2022-08-31T11:47:07.757Z,101062.13
2022-08-31T11:49:44.834Z,101066.13
2022-08-31T11:52:42.968Z,101050.28
2022-08-31T11:55:27.133Z,101051.94
2022-08-31T11:58:31.643Z,101045.22
2022-08-31T12:01:09.522Z,101050.41
2022-08-31T12:03:52.560Z,101053.13
2022-08-31T12:07:09.277Z,101054.53
2022-08-31T12:10:18.759Z,101044.53
2022-08-31T12:13:40.751Z,101048.72
2022-08-31T12:16:44.293Z,101050.97
2022-08-31T12:20:01.358Z,101059.88
2022-08-31T12:23:37.417Z,101060.16
2022-08-31T12:26:45.262Z,101054.28
2022-08-31T12:29:24.940Z,101052.75
2022-08-31T12:32:36.268Z,101055.31
2022-08-31T12:35:17.103Z,101051.00
2022-08-31T12:37:46.372Z,101043.13
2022-08-31T12:40:22.541Z,101048.63
2022-08-31T12:43:05.432Z,101037.53
2022-08-31T12:46:03.495Z,101042.28
2022-08-31T12:48:53.871Z,101036.56
2022-08-31T12:51:44.118Z,101035.09
2022-08-31T12:54:56.538Z,101038.09
2022-08-31T12:57:55.155Z,101025.63
2022-08-31T13:00:27.201Z,101027.69
2022-08-31T13:03:00.347Z,101021.00
2022-08-31T13:05:33.661Z,101016.19
2022-08-31T13:08:02.815Z,101017.66
2022-08-31T13:10:35.141Z,101010.47
2022-08-31T13:13:07.076Z,101013.19
2022-08-31T13:15:42.248Z,100993.69
2022-08-31T13:18:13.000Z,101000.38
2022-08-31T13:20:44.177Z,100995.31
2022-08-31T13:23:16.055Z,100996.38
2022-08-31T13:25:49.728Z,100985.81
2022-08-31T13:28:27.136Z,100982.56
2022-08-31T13:31:03.698Z,100968.03
2022-08-31T13:33:35.405Z,100977.81
2022-08-31T13:36:10.616Z,100972.38
2022-08-31T13:38:51.338Z,100967.56
2022-08-31T13:41:28.555Z,100958.06
2022-08-31T13:44:03.701Z,100960.69
2022-08-31T13:46:43.436Z,100955.97
2022-08-31T13:49:35.205Z,100954.38
2022-08-31T13:52:06.793Z,100950.56
2022-08-31T13:54:37.519Z,100944.41
2022-08-31T13:57:28.405Z,100944.47
2022-08-31T14:00:29.535Z,100937.97
2022-08-31T14:02:59.036Z,100944.84
2022-08-31T14:05:33.532Z,100940.19
2022-08-31T14:08:07.268Z,100941.09
2022-08-31T14:10:40.987Z,100936.31
2022-08-31T14:13:20.893Z,100944.34
2022-08-31T14:15:54.059Z,100936.44
2022-08-31T14:18:27.559Z,100931.53
2022-08-31T14:21:22.845Z,100937.22
2022-08-31T14:24:01.093Z,100929.22
2022-08-31T14:26:33.368Z,100926.19
2022-08-31T14:29:09.960Z,100931.09
2022-08-31T14:31:48.547Z,100924.06
2022-08-31T14:34:29.877Z,100925.88
2022-08-31T14:37:02.396Z,100920.38
2022-08-31T14:39:36.142Z,100921.28
2022-08-31T14:42:08.423Z,100914.06
2022-08-31T14:44:41.532Z,100909.16
2022-08-31T14:47:11.597Z,100908.00
2022-08-31T14:49:45.382Z,100901.97
2022-08-31T14:52:14.488Z,100905.72
2022-08-31T14:54:44.885Z,100896.88
2022-08-31T14:57:17.529Z,100907.38
2022-08-31T14:59:47.230Z,100897.50
2022-08-31T15:02:21.605Z,100881.75
2022-08-31T15:04:50.163Z,100886.91
2022-08-31T15:07:19.245Z,100895.00
2022-08-31T15:09:50.228Z,100879.09
2022-08-31T15:12:19.195Z,100888.03
2022-08-31T15:14:47.505Z,100879.00
2022-08-31T15:17:19.559Z,100886.28
2022-08-31T15:19:55.314Z,100891.38
2022-08-31T15:22:26.189Z,100887.19
2022-08-31T15:24:56.835Z,100896.97
2022-08-31T15:27:29.178Z,100889.50
2022-08-31T15:30:04.406Z,100892.44
2022-08-31T15:32:32.752Z,100891.53
2022-08-31T15:35:01.053Z,100888.31
2022-08-31T15:37:31.840Z,100884.13
2022-08-31T15:40:07.249Z,100885.00
2022-08-31T15:42:38.261Z,100880.03
2022-08-31T15:45:08.823Z,100881.00
2022-08-31T15:47:54.958Z,100881.03
2022-08-31T15:50:31.940Z,100877.09
2022-08-31T15:53:08.968Z,100883.59
2022-08-31T15:55:41.359Z,100879.75
2022-08-31T15:58:10.673Z,100890.75
2022-08-31T16:00:41.956Z,100872.09
2022-08-31T16:03:12.477Z,100875.16
2022-08-31T16:05:43.510Z,100877.50
2022-08-31T16:08:14.084Z,100869.31
2022-08-31T16:10:47.987Z,100863.38
2022-08-31T16:13:17.631Z,100853.28
2022-08-31T16:15:52.181Z,100856.34
2022-08-31T16:18:22.536Z,100858.06
2022-08-31T16:20:51.769Z,100851.97
2022-08-31T16:23:21.336Z,100855.31
2022-08-31T16:25:51.046Z,100842.91
2022-08-31T16:28:21.521Z,100849.06
2022-08-31T16:30:51.723Z,100850.38
2022-08-31T16:33:20.989Z,100853.00
2022-08-31T16:35:49.424Z,100850.53
2022-08-31T16:38:18.097Z,100844.13
2022-08-31T16:40:46.691Z,100839.38
2022-08-31T16:43:16.450Z,100834.59
2022-08-31T16:45:45.042Z,100841.59
2022-08-31T16:48:30.677Z,100841.69
2022-08-31T16:51:02.041Z,100842.09
2022-08-31T16:53:31.543Z,100845.81
2022-08-31T16:56:00.232Z,100839.78
2022-08-31T17:01:25.458Z,100840.31
2022-08-31T17:03:57.622Z,100836.38
2022-08-31T17:06:28.409Z,100841.25
2022-08-31T17:08:58.746Z,100845.41
2022-08-31T17:11:31.220Z,100846.03
2022-08-31T17:14:03.251Z,100838.00
2022-08-31T17:16:35.589Z,100842.34
2022-08-31T17:19:08.304Z,100846.00
2022-08-31T17:21:45.991Z,100852.03
2022-08-31T17:24:16.062Z,100851.69
2022-08-31T17:26:44.729Z,100863.69
2022-08-31T17:29:14.336Z,100860.59
2022-08-31T17:31:46.707Z,100858.88
2022-08-31T17:34:19.849Z,100869.97
2022-08-31T17:36:51.298Z,100866.78
2022-08-31T17:39:22.135Z,100867.28
2022-08-31T17:41:51.460Z,100868.00
2022-08-31T17:44:26.347Z,100872.41
2022-08-31T17:46:54.931Z,100874.06
2022-08-31T17:49:26.743Z,100871.97
2022-08-31T17:51:57.425Z,100876.97
2022-08-31T17:54:31.025Z,100883.59
2022-08-31T17:57:01.477Z,100884.75
2022-08-31T17:59:35.360Z,100891.84
2022-08-31T18:02:08.342Z,100894.38
2022-08-31T18:04:37.888Z,100894.94
2022-08-31T18:07:07.122Z,100898.94
2022-08-31T18:09:40.271Z,100891.34
2022-08-31T18:12:09.989Z,100894.41
2022-08-31T18:14:41.505Z,100901.53
2022-08-31T18:17:16.049Z,100905.25
2022-08-31T18:19:45.082Z,100904.44
2022-08-31T18:22:14.106Z,100903.44
2022-08-31T18:24:43.045Z,100904.31
2022-08-31T18:27:15.061Z,100905.94
2022-08-31T18:29:46.238Z,100911.19
2022-08-31T18:32:15.754Z,100911.84
2022-08-31T18:34:46.167Z,100905.47
2022-08-31T18:37:16.975Z,100922.16
2022-08-31T18:40:08.637Z,100922.81
2022-08-31T18:42:56.835Z,100930.50
2022-08-31T18:45:27.875Z,100936.56
2022-08-31T18:48:23.801Z,100938.81
2022-08-31T18:50:50.002Z,100941.13
2022-08-31T18:53:29.424Z,100941.53
2022-08-31T18:56:07.777Z,100947.31
2022-08-31T18:58:37.227Z,100943.22
2022-08-31T19:01:11.247Z,100944.50
2022-08-31T19:03:41.045Z,100944.06
2022-08-31T19:06:16.642Z,100951.44
2022-08-31T19:08:45.531Z,100944.78
2022-08-31T19:11:14.159Z,100944.22
2022-08-31T19:13:43.591Z,100944.63
2022-08-31T19:16:17.935Z,100936.91
2022-08-31T19:18:48.238Z,100935.50
2022-08-31T19:21:20.691Z,100938.59
2022-08-31T19:23:51.458Z,100936.22
2022-08-31T19:26:24.331Z,100936.47
2022-08-31T19:28:52.664Z,100925.47
2022-08-31T19:31:24.863Z,100933.88
2022-08-31T19:33:57.868Z,100936.06
2022-08-31T19:36:27.684Z,100930.25
2022-08-31T19:38:57.439Z,100939.63
2022-08-31T19:41:27.811Z,100942.75
2022-08-31T19:44:07.712Z,100941.44
2022-08-31T19:46:40.390Z,100945.44
2022-08-31T19:49:10.932Z,100945.94
2022-08-31T19:51:41.567Z,100946.31
2022-08-31T19:54:12.325Z,100934.31
2022-08-31T19:56:43.691Z,100946.13
2022-08-31T19:59:17.996Z,100944.75
2022-08-31T20:01:52.902Z,100938.00
2022-08-31T20:04:24.439Z,100940.00
2022-08-31T20:06:52.808Z,100940.34
2022-08-31T20:09:23.635Z,100939.78
2022-08-31T20:11:54.680Z,100942.63
2022-08-31T20:14:24.284Z,100937.66
2022-08-31T20:16:54.799Z,100934.41
2022-08-31T20:19:25.573Z,100941.81
2022-08-31T20:21:55.895Z,100939.44
2022-08-31T20:24:28.176Z,100936.19
2022-08-31T20:27:08.997Z,100950.81
2022-08-31T20:29:39.224Z,100952.03
2022-08-31T20:32:09.184Z,100938.97
2022-08-31T20:34:38.513Z,100941.81
2022-08-31T20:37:06.977Z,100942.94
2022-08-31T20:39:37.199Z,100947.50
2022-08-31T20:42:07.685Z,100944.22
2022-08-31T20:44:38.338Z,100946.19
2022-08-31T20:47:28.481Z,100948.09
2022-08-31T20:49:59.164Z,100941.22
2022-08-31T20:52:31.001Z,100939.69
2022-08-31T20:55:02.818Z,100950.59
2022-08-31T20:57:33.429Z,100951.72
2022-08-31T21:00:03.817Z,100952.91
2022-08-31T21:02:34.322Z,100952.31
2022-08-31T21:05:33.952Z,100959.59
2022-08-31T21:07:52.285Z,100958.16
2022-08-31T21:10:26.066Z,100959.28
2022-08-31T21:13:07.091Z,100954.28
2022-08-31T21:15:35.544Z,100959.84
2022-08-31T21:18:05.589Z,100963.53
2022-08-31T21:20:35.326Z,100956.69
2022-08-31T21:23:03.669Z,100950.69
2022-08-31T21:25:31.971Z,100955.31
2022-08-31T21:28:02.108Z,100956.34
2022-08-31T21:30:30.427Z,100955.66
2022-08-31T21:32:58.688Z,100957.53
2022-08-31T21:35:28.380Z,100955.88
2022-08-31T21:37:58.856Z,100954.25
2022-08-31T21:40:28.458Z,100949.09
2022-08-31T21:42:57.130Z,100955.44
2022-08-31T21:45:25.513Z,100956.44
2022-08-31T21:47:54.172Z,100954.88
2022-08-31T21:50:22.471Z,100953.16
2022-08-31T21:52:59.592Z,100958.66
2022-08-31T21:55:28.942Z,100960.50
2022-08-31T21:57:57.430Z,100958.97
2022-08-31T22:00:29.411Z,100970.63
2022-08-31T22:02:58.487Z,100959.28
2022-08-31T22:05:32.933Z,100964.78
2022-08-31T22:08:02.820Z,100963.13
2022-08-31T22:10:32.459Z,100969.47
2022-08-31T22:13:03.219Z,100966.97
2022-08-31T22:15:34.577Z,100967.13
2022-08-31T22:18:35.337Z,100972.59
2022-08-31T22:20:54.323Z,100965.72
2022-08-31T22:23:23.955Z,100972.06
2022-08-31T22:25:55.072Z,100966.03
2022-08-31T22:28:25.046Z,100972.38
2022-08-31T22:30:53.411Z,100968.09
2022-08-31T22:33:22.212Z,100975.25
2022-08-31T22:35:50.992Z,100966.59
2022-08-31T22:38:19.373Z,100964.94
2022-08-31T22:40:49.921Z,100968.56
2022-08-31T22:43:18.863Z,100965.09
2022-08-31T22:45:49.093Z,100966.97
2022-08-31T22:48:18.098Z,100967.97
2022-08-31T22:50:47.035Z,100967.13
2022-08-31T22:53:15.807Z,100969.88
2022-08-31T22:55:44.498Z,100965.56
2022-08-31T22:58:14.915Z,100966.53
2022-08-31T23:00:46.188Z,100969.34
2022-08-31T23:03:15.079Z,100963.22
2022-08-31T23:05:44.080Z,100976.56
2022-08-31T23:08:13.830Z,100971.34
2022-08-31T23:10:42.948Z,100968.75
2022-08-31T23:13:12.951Z,100964.44
2022-08-31T23:15:41.610Z,100959.28
2022-08-31T23:18:10.579Z,100955.88
2022-08-31T23:20:41.591Z,100960.41
2022-08-31T23:23:10.363Z,100964.00
2022-08-31T23:25:40.726Z,100956.16
2022-08-31T23:28:09.465Z,100961.63
2022-08-31T23:30:44.676Z,100961.78
2022-08-31T23:33:13.119Z,100958.31
2022-08-31T23:35:43.159Z,100965.34
2022-08-31T23:38:11.598Z,100967.22
2022-08-31T23:40:39.973Z,100968.94
2022-08-31T23:43:11.074Z,100967.22
2022-08-31T23:45:41.585Z,100959.13
2022-08-31T23:48:10.118Z,100966.03
2022-08-31T23:50:38.766Z,100966.78
2022-08-31T23:53:14.470Z,100961.34
2022-08-31T23:55:46.576Z,100954.94
2022-08-31T23:58:17.469Z,100957.44
